Main page
METAR-TAF:

METAR-TAF

Airports :

Jacareacanga, Pará, Brazil

latitude: 06-16S, longitude: 057-44W, elevation: 98 m

Current weather observation

The report was made 9 hours and 7 minutes ago, at 21:00 UTC
Wind 6 kt from the East/Southeast
Temperature 28°C
Humidity 74%
Pressure 1007 hPa
Visibility 10 km or more
Few clouds at a height of 2500 ft, Cumulonimbus.
Broken clouds at a height of 10000 ft
thunderstorm

METAR: SBEK 232100Z 12006KT 9999 TS FEW025CB BKN100 28/23 Q1007

Time: 03:07 (06:07 UTC)


TAF: missing

Weather observations and forecasts of more than 4000 airports (METAR and TAF reports).

The available stations are represented by yellow and red dots on the map.

Hover mouse over dot to see the name of the station.

Then click to see weather observations and forecasts.

To change the map : click on the green buttons with a black cross to zoom in, on the green button with a dash to zoom out, or on the green arrows for adjacent maps.


METAR-TAF: